Time;durP1;ratioP1;P1;durP2;ratioP2;P2;SDS_P1;SDS_P2;PMS_P1;PMS_P2;Temp;Humidity;BMP_temperature;BMP_pressure;BME280_temperature;BME280_humidity;BME280_pressure;Samples;Min_cycle;Max_cycle;Signal;HPM_P1;HPM_P2
2021/10/01 00:01:14;;;;;;;7.80;4.05;;;7.80;94.40;;;;;;4880947;29;20057;-92
2021/10/01 00:03:40;;;;;;;6.82;3.83;;;7.90;94.50;;;;;;4881058;29;20064;-92
2021/10/01 00:06:05;;;;;;;7.00;4.47;;;7.90;94.50;;;;;;4896468;29;20037;-92
2021/10/01 00:08:32;;;;;;;7.25;4.47;;;7.90;95.00;;;;;;4897664;29;20033;-91
2021/10/01 00:10:58;;;;;;;4.63;2.83;;;8.00;95.10;;;;;;4886527;29;20190;-92
2021/10/01 00:13:25;;;;;;;5.82;4.13;;;8.00;94.90;;;;;;4881234;29;20465;-92
2021/10/01 00:15:51;;;;;;;5.57;3.75;;;8.00;95.10;;;;;;4881145;29;20147;-92
2021/10/01 00:18:16;;;;;;;7.20;4.10;;;8.10;95.30;;;;;;4880971;29;20053;-92
2021/10/01 00:20:42;;;;;;;5.72;3.53;;;8.10;95.10;;;;;;4880797;29;20501;-92
2021/10/01 00:23:08;;;;;;;5.28;3.35;;;8.10;94.90;;;;;;4880810;29;20033;-92
2021/10/01 00:25:34;;;;;;;5.63;3.88;;;8.10;95.10;;;;;;4880585;29;20033;-92
2021/10/01 00:28:00;;;;;;;7.25;4.50;;;8.10;95.20;;;;;;4880510;29;20029;-91
2021/10/01 00:30:26;;;;;;;7.72;3.40;;;8.10;95.40;;;;;;4880518;29;20025;-91
2021/10/01 00:32:52;;;;;;;6.97;4.65;;;8.10;95.40;;;;;;4881008;29;20044;-92
2021/10/01 00:35:20;;;;;;;5.85;3.42;;;8.10;95.80;;;;;;4880672;29;20037;-91
2021/10/01 00:37:46;;;;;;;6.47;3.75;;;8.10;95.80;;;;;;4880334;29;20045;-92
2021/10/01 00:40:12;;;;;;;4.30;3.33;;;8.10;95.90;;;;;;4880584;29;20040;-92
2021/10/01 00:42:38;;;;;;;6.75;4.07;;;8.10;95.40;;;;;;4880906;29;20527;-92
2021/10/01 00:45:05;;;;;;;6.20;4.20;;;8.10;95.90;;;;;;4884079;29;20037;-92
2021/10/01 00:47:31;;;;;;;5.78;3.10;;;8.10;95.60;;;;;;4881186;29;20029;-92
2021/10/01 00:49:56;;;;;;;5.22;3.00;;;8.10;95.60;;;;;;4883756;29;20106;-91
2021/10/01 00:52:22;;;;;;;4.22;2.45;;;8.10;95.60;;;;;;4888329;29;20036;-92
2021/10/01 00:54:48;;;;;;;6.13;3.42;;;8.10;95.50;;;;;;4892678;29;20092;-92
2021/10/01 00:57:14;;;;;;;6.88;2.60;;;8.10;95.50;;;;;;4903855;29;20033;-91
2021/10/01 00:59:40;;;;;;;5.65;3.20;;;8.00;95.50;;;;;;4904260;29;20017;-92
2021/10/01 01:02:07;;;;;;;4.15;2.97;;;8.00;95.50;;;;;;4904195;29;20032;-91
2021/10/01 01:04:33;;;;;;;5.45;3.22;;;8.00;95.70;;;;;;4898401;29;20100;-92
2021/10/01 01:07:34;;;;;;;5.63;2.85;;;8.00;95.80;;;;;;4892223;29;20033;-92
2021/10/01 01:10:25;;;;;;;4.70;3.40;;;8.00;95.80;;;;;;4891290;29;20040;-92
2021/10/01 01:13:14;;;;;;;5.30;2.58;;;7.90;95.80;;;;;;4886990;29;20020;-92
2021/10/01 01:15:51;;;;;;;5.45;3.55;;;7.90;96.50;;;;;;4880613;29;20095;-91
2021/10/01 01:18:30;;;;;;;4.70;2.78;;;7.90;96.30;;;;;;4880679;29;20038;-92
2021/10/01 01:20:59;;;;;;;4.82;3.10;;;7.90;96.10;;;;;;4880275;29;20441;-92
2021/10/01 01:24:02;;;;;;;5.43;3.20;;;7.90;95.70;;;;;;4879985;29;20112;-92
2021/10/01 01:26:53;;;;;;;4.38;2.85;;;7.80;95.70;;;;;;4880010;29;20097;-92
2021/10/01 01:29:37;;;;;;;5.30;2.92;;;7.80;95.80;;;;;;4879624;29;20060;-92
2021/10/01 01:32:15;;;;;;;2.97;2.33;;;7.80;96.10;;;;;;4879684;29;20044;-92
2021/10/01 01:34:49;;;;;;;4.88;3.65;;;7.80;96.10;;;;;;4880825;29;20037;-92
2021/10/01 01:37:23;;;;;;;3.47;2.55;;;7.80;95.90;;;;;;4879446;29;20489;-91
2021/10/01 01:39:51;;;;;;;5.45;2.53;;;7.80;95.90;;;;;;4879663;29;20037;-91
2021/10/01 01:42:18;;;;;;;3.22;1.98;;;7.80;96.00;;;;;;4879727;29;20075;-92
2021/10/01 01:44:45;;;;;;;4.35;2.10;;;7.70;95.80;;;;;;4879592;29;20034;-92
2021/10/01 01:47:12;;;;;;;3.72;2.35;;;7.70;95.80;;;;;;4879551;29;20066;-92
2021/10/01 01:49:38;;;;;;;4.47;2.40;;;7.70;95.90;;;;;;4879663;29;20025;-92
2021/10/01 01:52:06;;;;;;;3.90;2.38;;;7.70;96.10;;;;;;4879817;29;20461;-92
2021/10/01 01:54:34;;;;;;;5.68;2.90;;;7.70;96.10;;;;;;4880691;29;20050;-92
2021/10/01 01:57:02;;;;;;;4.85;2.70;;;7.70;96.00;;;;;;4879393;29;20116;-92
2021/10/01 01:59:29;;;;;;;2.95;1.88;;;7.70;96.00;;;;;;4880585;29;20033;-92
2021/10/01 02:01:57;;;;;;;3.13;1.60;;;7.70;95.90;;;;;;4879730;29;20392;-92
2021/10/01 02:04:24;;;;;;;3.47;2.30;;;7.60;95.80;;;;;;4879445;29;20040;-92
2021/10/01 02:06:51;;;;;;;4.20;2.78;;;7.60;96.10;;;;;;4882342;29;20033;-92
2021/10/01 02:09:18;;;;;;;4.22;3.10;;;7.60;96.10;;;;;;4883455;29;20036;-92
2021/10/01 02:11:45;;;;;;;5.03;2.70;;;7.60;96.30;;;;;;4883177;29;20044;-92
2021/10/01 02:14:14;;;;;;;2.45;1.90;;;7.60;96.50;;;;;;4883107;29;20028;-91
2021/10/01 02:16:42;;;;;;;4.00;2.80;;;7.60;96.50;;;;;;4882984;29;20035;-92
2021/10/01 02:19:10;;;;;;;4.35;2.45;;;7.60;96.50;;;;;;4883030;29;20068;-92
2021/10/01 02:21:37;;;;;;;5.38;2.85;;;7.60;96.60;;;;;;4883241;29;20064;-92
2021/10/01 02:24:04;;;;;;;3.40;2.25;;;7.50;96.60;;;;;;4882897;29;20029;-92
2021/10/01 02:26:43;;;;;;;6.78;2.85;;;7.60;96.50;;;;;;4882714;29;20380;-92
2021/10/01 02:29:30;;;;;;;4.75;2.72;;;7.50;96.50;;;;;;4883730;29;20033;-92
2021/10/01 02:32:13;;;;;;;3.58;1.90;;;7.50;96.50;;;;;;4883529;29;20415;-92
2021/10/01 02:34:42;;;;;;;4.57;2.37;;;7.50;96.50;;;;;;4905050;29;20025;-92
2021/10/01 02:37:08;;;;;;;2.50;1.75;;;7.50;96.50;;;;;;4906413;29;20053;-91
2021/10/01 02:39:36;;;;;;;3.50;2.00;;;7.50;96.60;;;;;;4902286;29;20024;-92
2021/10/01 02:42:03;;;;;;;4.15;2.83;;;7.50;96.50;;;;;;4904610;29;20049;-92
2021/10/01 02:44:29;;;;;;;4.18;2.25;;;7.50;96.60;;;;;;4894170;29;20036;-92
2021/10/01 02:46:55;;;;;;;3.08;2.13;;;7.50;96.80;;;;;;4884119;29;20025;-92
2021/10/01 02:49:21;;;;;;;2.10;1.67;;;7.50;96.70;;;;;;4883892;29;20116;-90
2021/10/01 02:51:55;;;;;;;3.28;2.13;;;7.50;96.70;;;;;;4883728;29;20040;-91
2021/10/01 02:54:26;;;;;;;;;;;7.50;96.70;;;;;;4883045;29;20044;-91
2021/10/01 02:57:01;;;;;;;1.60;1.50;;;7.40;97.20;;;;;;4882198;29;19908;-92
2021/10/01 02:59:29;;;;;;;2.42;2.03;;;7.40;96.70;;;;;;4882326;29;20511;-92
2021/10/01 03:01:59;;;;;;;3.15;2.10;;;7.40;96.60;;;;;;4882377;29;20037;-92
2021/10/01 03:04:25;;;;;;;3.25;1.95;;;7.30;96.70;;;;;;4881967;29;20025;-92
2021/10/01 03:06:52;;;;;;;4.45;2.72;;;7.30;96.80;;;;;;4884177;29;20056;-92
2021/10/01 03:09:22;;;;;;;4.35;2.17;;;7.30;97.00;;;;;;4882264;29;20072;-92
2021/10/01 03:11:49;;;;;;;3.55;2.00;;;7.30;97.30;;;;;;4885969;29;20061;-92
2021/10/01 03:14:17;;;;;;;4.28;2.00;;;7.40;97.10;;;;;;4883458;29;20120;-91
2021/10/01 03:16:48;;;;;;;4.10;2.40;;;7.40;97.10;;;;;;4884043;29;20037;-90
2021/10/01 03:19:14;;;;;;;3.90;2.92;;;7.40;97.10;;;;;;4893154;29;20417;-91
2021/10/01 03:21:41;;;;;;;5.75;2.97;;;7.40;97.10;;;;;;4898267;29;20037;-90
2021/10/01 03:24:09;;;;;;;4.00;2.55;;;7.40;97.10;;;;;;4898136;29;20060;-90
2021/10/01 03:26:35;;;;;;;2.60;2.13;;;7.40;97.20;;;;;;4895373;29;20158;-92
2021/10/01 03:29:02;;;;;;;3.60;2.30;;;7.40;97.10;;;;;;4894587;29;20076;-91
2021/10/01 03:31:28;;;;;;;2.72;1.58;;;7.40;97.10;;;;;;4888147;29;20037;-91
2021/10/01 03:33:55;;;;;;;2.55;2.15;;;7.40;97.00;;;;;;4883050;29;20085;-92
2021/10/01 03:36:22;;;;;;;3.90;2.35;;;7.30;97.00;;;;;;4881409;29;20108;-92
2021/10/01 03:38:52;;;;;;;7.50;1.98;;;7.30;97.00;;;;;;4881914;29;20033;-92
2021/10/01 03:41:18;;;;;;;4.47;1.77;;;7.30;97.00;;;;;;4881946;29;20048;-91
2021/10/01 03:43:44;;;;;;;5.35;2.85;;;7.20;97.10;;;;;;4881371;29;20029;-91
2021/10/01 03:46:09;;;;;;;4.50;2.22;;;7.20;97.20;;;;;;4881545;29;20086;-91
2021/10/01 03:48:35;;;;;;;4.28;2.20;;;7.20;97.30;;;;;;4881424;29;20025;-91
2021/10/01 03:51:01;;;;;;;3.20;2.00;;;7.20;97.30;;;;;;4881288;29;20033;-92
2021/10/01 03:53:27;;;;;;;5.72;2.45;;;7.20;97.20;;;;;;4881383;29;20022;-92
2021/10/01 03:55:52;;;;;;;3.25;2.15;;;7.20;97.30;;;;;;4880897;29;20506;-91
2021/10/01 03:58:21;;;;;;;2.60;2.05;;;7.20;97.40;;;;;;4881773;29;20028;-92
2021/10/01 04:00:47;;;;;;;2.78;2.00;;;7.20;97.50;;;;;;4881376;29;20037;-91
2021/10/01 04:03:13;;;;;;;5.57;2.88;;;7.20;97.60;;;;;;4881072;29;20036;-90
2021/10/01 04:05:40;;;;;;;4.75;2.05;;;7.20;97.60;;;;;;4881095;29;20040;-91
2021/10/01 04:08:13;;;;;;;2.40;1.77;;;7.20;97.70;;;;;;4883695;29;20096;-91
2021/10/01 04:10:39;;;;;;;3.53;1.83;;;7.30;97.70;;;;;;4903618;29;20025;-91
2021/10/01 04:13:08;;;;;;;2.55;2.28;;;7.30;97.80;;;;;;4904361;29;20105;-92
2021/10/01 04:15:35;;;;;;;3.85;2.05;;;7.40;97.80;;;;;;4905039;29;20037;-92
2021/10/01 04:18:01;;;;;;;6.45;3.08;;;7.50;97.90;;;;;;4905171;29;20038;-91
2021/10/01 04:20:27;;;;;;;4.35;2.67;;;7.50;97.90;;;;;;4904001;29;20021;-90
2021/10/01 04:22:53;;;;;;;6.20;2.90;;;7.60;97.90;;;;;;4897033;29;20032;-91
2021/10/01 04:25:19;;;;;;;3.60;2.40;;;7.70;97.90;;;;;;4897576;29;20028;-92
2021/10/01 04:27:44;;;;;;;6.32;2.65;;;7.70;97.90;;;;;;4896752;29;20020;-92
2021/10/01 04:30:10;;;;;;;5.05;3.10;;;7.80;97.90;;;;;;4891002;29;20040;-91
2021/10/01 04:32:43;;;;;;;4.15;2.10;;;7.90;97.80;;;;;;4889510;29;20033;-90
2021/10/01 04:35:09;;;;;;;3.00;2.10;;;8.00;97.80;;;;;;4898812;29;20144;-92
2021/10/01 04:37:35;;;;;;;3.88;2.90;;;8.10;97.90;;;;;;4892541;29;20113;-91
2021/10/01 04:40:02;;;;;;;4.43;2.92;;;8.20;97.80;;;;;;4882847;29;20556;-92
2021/10/01 04:42:28;;;;;;;4.22;2.47;;;8.30;97.90;;;;;;4882938;29;20053;-91
2021/10/01 04:45:09;;;;;;;3.40;2.55;;;8.40;97.80;;;;;;4882002;29;20044;-91
2021/10/01 04:47:38;;;;;;;5.03;2.60;;;8.50;97.70;;;;;;4881801;29;20063;-92
2021/10/01 04:50:08;;;;;;;5.13;3.25;;;8.70;97.70;;;;;;4882551;29;20112;-91
2021/10/01 04:52:39;;;;;;;5.03;2.95;;;8.80;97.70;;;;;;4883257;29;20526;-92
2021/10/01 04:55:08;;;;;;;5.93;3.45;;;8.90;97.60;;;;;;4882990;29;20036;-92
2021/10/01 04:57:34;;;;;;;5.03;3.05;;;9.00;97.60;;;;;;4882121;29;20029;-91
2021/10/01 05:00:06;;;;;;;6.00;3.08;;;9.10;97.50;;;;;;4883178;29;20029;-92
2021/10/01 05:02:46;;;;;;;4.60;3.15;;;9.30;97.40;;;;;;4882070;29;20068;-92
2021/10/01 05:05:12;;;;;;;4.82;3.35;;;9.40;97.30;;;;;;4883020;29;20033;-91
2021/10/01 05:07:46;;;;;;;5.50;3.53;;;9.50;97.20;;;;;;4881351;29;20136;-92
2021/10/01 05:10:12;;;;;;;6.05;4.35;;;9.60;97.10;;;;;;4880853;29;20061;-91
2021/10/01 05:12:39;;;;;;;4.80;3.67;;;9.70;96.90;;;;;;4881007;29;20278;-92
2021/10/01 05:15:05;;;;;;;6.63;3.20;;;9.90;96.80;;;;;;4866128;29;20028;-91
2021/10/01 05:17:35;;;;;;;3.78;2.63;;;10.00;96.80;;;;;;4882792;29;20025;-92
2021/10/01 05:20:05;;;;;;;4.70;3.17;;;10.10;96.60;;;;;;4886983;29;20033;-92
2021/10/01 05:22:32;;;;;;;5.20;3.72;;;10.20;96.40;;;;;;4888189;29;20186;-91
2021/10/01 05:24:58;;;;;;;3.55;3.15;;;10.30;96.30;;;;;;4889585;29;20033;-91
2021/10/01 05:27:23;;;;;;;6.30;4.15;;;10.40;96.30;;;;;;4872838;29;20097;-91
2021/10/01 05:29:49;;;;;;;4.72;3.42;;;10.50;96.10;;;;;;4892050;29;20040;-93
2021/10/01 05:32:17;;;;;;;6.53;3.58;;;10.60;96.00;;;;;;4892559;29;20092;-91
2021/10/01 05:34:46;;;;;;;5.65;3.75;;;10.60;95.80;;;;;;4889853;29;20063;-91
2021/10/01 05:37:12;;;;;;;7.03;4.68;;;10.70;95.70;;;;;;4888482;29;20063;-92
2021/10/01 05:39:38;;;;;;;6.05;3.80;;;10.80;95.50;;;;;;4889366;29;20037;-91
2021/10/01 05:42:07;;;;;;;5.82;4.10;;;10.80;95.50;;;;;;4890426;29;20055;-90
2021/10/01 05:44:38;;;;;;;5.47;3.90;;;10.90;95.40;;;;;;4875657;29;20032;-91
2021/10/01 05:47:07;;;;;;;6.45;4.28;;;11.00;95.30;;;;;;4871359;29;20033;-91
2021/10/01 05:49:42;;;;;;;4.80;4.13;;;11.10;95.20;;;;;;4871326;29;20033;-91
2021/10/01 05:52:36;;;;;;;5.10;4.00;;;11.20;95.10;;;;;;4869433;29;20049;-92
2021/10/01 05:55:05;;;;;;;5.27;3.77;;;11.30;94.90;;;;;;4893454;29;20029;-91
2021/10/01 05:57:48;;;;;;;8.52;5.10;;;11.40;94.80;;;;;;4893592;29;20351;-91
2021/10/01 06:00:17;;;;;;;8.43;4.20;;;11.50;94.50;;;;;;4900367;29;20025;-91
2021/10/01 06:03:03;;;;;;;8.30;5.45;;;11.60;94.40;;;;;;4900251;29;20040;-91
2021/10/01 06:05:31;;;;;;;8.27;5.97;;;11.70;94.20;;;;;;4880666;29;20480;-91
2021/10/01 06:08:07;;;;;;;8.13;4.95;;;11.80;93.90;;;;;;4896793;29;20032;-91
2021/10/01 06:10:48;;;;;;;;;;;;;;;;;;;;;
2021/10/01 06:13:17;;;;;;;7.57;4.97;;;12.00;93.60;;;;;;4893480;29;20108;-92
2021/10/01 06:15:44;;;;;;;4.45;3.80;;;12.10;93.40;;;;;;4885614;29;20037;-92
2021/10/01 06:18:12;;;;;;;5.82;4.45;;;12.30;93.30;;;;;;4869635;29;20029;-92
2021/10/01 06:20:49;;;;;;;5.63;3.75;;;12.40;93.10;;;;;;4885497;29;20123;-91
2021/10/01 06:23:18;;;;;;;6.68;4.05;;;12.50;92.80;;;;;;4886074;29;20029;-91
2021/10/01 06:25:45;;;;;;;7.00;4.47;;;12.60;92.50;;;;;;4870234;29;20037;-91
2021/10/01 06:28:20;;;;;;;6.35;4.00;;;12.80;92.30;;;;;;4886087;29;20056;-91
2021/10/01 06:30:49;;;;;;;5.85;4.03;;;12.90;92.10;;;;;;4884089;29;20036;-91
2021/10/01 06:33:28;;;;;;;5.55;3.90;;;13.00;91.80;;;;;;4868706;29;20040;-92
2021/10/01 06:35:54;;;;;;;4.88;3.63;;;13.10;91.60;;;;;;4883137;29;20025;-92
2021/10/01 06:38:23;;;;;;;4.63;3.78;;;13.20;91.70;;;;;;4882491;29;20120;-92
2021/10/01 06:40:48;;;;;;;5.68;3.80;;;13.30;91.40;;;;;;4883921;29;20040;-92
2021/10/01 06:43:22;;;;;;;6.53;3.92;;;13.40;91.10;;;;;;4882670;29;20063;-92
2021/10/01 06:45:55;;;;;;;5.75;4.32;;;13.50;90.50;;;;;;4883232;29;20037;-92
2021/10/01 08:18:36;;;;;;;6.88;5.47;;;14.30;82.50;;;;;;4881777;29;20087;-92
2021/10/01 08:21:34;;;;;;;5.93;4.55;;;14.20;82.60;;;;;;4878117;29;20089;-92
2021/10/01 08:24:02;;;;;;;5.75;3.90;;;14.30;82.10;;;;;;4861787;29;20569;-93
2021/10/01 08:26:35;;;;;;;7.07;4.78;;;14.30;82.30;;;;;;4875966;29;20481;-92
2021/10/01 08:29:22;;;;;;;;;;;;;;;;;;;;;
2021/10/01 08:31:59;;;;;;;5.97;4.68;;;14.50;81.70;;;;;;4885388;29;20047;-91
2021/10/01 08:34:31;;;;;;;5.53;4.50;;;14.50;81.10;;;;;;4881209;29;20555;-93
2021/10/01 08:37:04;;;;;;;6.22;4.05;;;14.60;80.50;;;;;;4860630;29;20077;-92
2021/10/01 08:39:33;;;;;;;7.22;4.97;;;14.60;80.00;;;;;;4869924;29;20036;-93
2021/10/01 08:42:17;;;;;;;9.05;5.57;;;14.60;79.50;;;;;;4862194;29;20045;-92
2021/10/01 08:45:29;;;;;;;7.60;4.75;;;14.60;78.60;;;;;;4882180;29;20098;-92
2021/10/01 08:47:34;;;;;;;5.63;4.18;;;14.50;78.80;;;;;;4863663;29;20049;-94
2021/10/01 08:50:00;;;;;;;6.90;4.55;;;14.50;78.10;;;;;;4886881;29;20120;-92
2021/10/01 08:53:00;;;;;;;6.47;4.45;;;14.60;77.50;;;;;;4883291;29;20066;-92
2021/10/01 08:55:30;;;;;;;6.95;4.97;;;14.60;77.10;;;;;;4878697;29;20048;-92
2021/10/01 08:58:13;;;;;;;6.45;4.43;;;14.60;77.40;;;;;;4867908;29;20033;-93
2021/10/01 09:00:47;;;;;;;6.30;4.53;;;14.60;76.90;;;;;;4871795;29;20156;-93
2021/10/01 09:07:44;;;;;;;;;;;14.70;76.20;;;;;;4757964;30;20488;-92
2021/10/01 09:32:54;;;;;;;4.15;3.25;;;15.00;71.40;;;;;;4573929;31;20067;-92
2021/10/01 09:35:27;;;;;;;4.85;2.88;;;15.00;69.00;;;;;;4616817;30;20125;-94
2021/10/01 09:38:04;;;;;;;4.20;3.00;;;15.00;69.80;;;;;;4735556;29;20055;-94
2021/10/01 09:40:37;;;;;;;4.22;2.83;;;15.10;68.70;;;;;;4805959;29;20047;-92
2021/10/01 09:43:05;;;;;;;3.08;2.35;;;15.10;68.70;;;;;;4792967;29;20047;-93
2021/10/01 09:46:28;;;;;;;2.97;2.35;;;15.30;67.50;;;;;;4807193;29;20183;-92
2021/10/01 09:49:02;;;;;;;3.10;2.67;;;15.30;65.10;;;;;;4761306;30;20464;-92
2021/10/01 09:51:56;;;;;;;3.33;2.40;;;15.40;64.70;;;;;;4821522;29;20049;-92
2021/10/01 09:54:32;;;;;;;3.30;2.33;;;15.50;64.10;;;;;;4850237;29;20049;-92
2021/10/01 09:57:09;;;;;;;2.75;2.45;;;15.60;63.30;;;;;;4874028;29;20025;-92
2021/10/01 09:59:58;;;;;;;;;;;;;;;;;;;;;
2021/10/01 10:02:27;;;;;;;3.75;2.42;;;15.60;61.00;;;;;;4868140;29;20047;-92
2021/10/01 10:04:56;;;;;;;3.35;2.75;;;15.70;60.70;;;;;;4844008;29;20125;-91
2021/10/01 10:07:36;;;;;;;4.05;2.60;;;15.70;59.20;;;;;;4841270;29;20041;-91
2021/10/01 10:10:11;;;;;;;4.10;2.78;;;15.70;59.40;;;;;;4847378;29;20092;-92
2021/10/01 10:12:56;;;;;;;2.70;2.50;;;15.70;58.60;;;;;;4872767;29;20048;-90
2021/10/01 10:15:22;;;;;;;2.50;2.28;;;15.70;57.90;;;;;;4864349;29;20025;-92
2021/10/01 10:18:00;;;;;;;2.20;2.00;;;15.60;56.80;;;;;;4866339;29;20090;-92
2021/10/01 10:20:29;;;;;;;2.95;2.20;;;15.60;57.50;;;;;;4864009;29;20113;-92
2021/10/01 10:23:57;;;;;;;;;;;;;;;;;;;;;
2021/10/01 10:26:57;;;;;;;1.85;1.75;;;15.60;55.90;;;;;;4844474;29;20038;-91
2021/10/01 10:33:02;;;;;;;3.08;2.10;;;15.80;57.50;;;;;;4765035;29;20050;-92
2021/10/01 10:35:57;;;;;;;4.15;2.10;;;15.90;57.40;;;;;;4825167;29;20039;-92
2021/10/01 10:39:03;;;;;;;3.05;2.45;;;15.90;56.80;;;;;;4827422;29;20069;-92
2021/10/01 10:48:40;;;;;;;3.70;2.40;;;15.80;55.70;;;;;;4791344;29;20518;-92
2021/10/01 10:51:52;;;;;;;2.90;2.28;;;15.80;55.70;;;;;;4793905;29;20103;-93
2021/10/01 10:55:14;;;;;;;;;;;;;;;;;;;;;
2021/10/01 10:57:51;;;;;;;2.80;1.92;;;15.90;55.90;;;;;;4767545;30;20071;-92
2021/10/01 11:04:27;;;;;;;4.47;2.38;;;16.00;55.90;;;;;;4719478;30;20046;-93
2021/10/01 11:06:54;;;;;;;3.25;2.13;;;16.00;55.20;;;;;;4784010;30;20039;-92
2021/10/01 11:09:41;;;;;;;2.20;2.00;;;16.00;55.20;;;;;;4787204;29;20039;-91
2021/10/01 11:22:52;;;;;;;2.33;1.77;;;16.00;54.30;;;;;;4777710;30;20055;-91
2021/10/01 11:25:52;;;;;;;2.90;2.00;;;16.00;54.60;;;;;;4824164;29;20034;-92
2021/10/01 11:28:46;;;;;;;2.72;2.08;;;16.00;54.20;;;;;;4834990;29;20393;-92
2021/10/01 11:31:32;;;;;;;;;;;;;;;;;;;;;
2021/10/01 11:34:00;;;;;;;2.63;2.42;;;16.00;54.70;;;;;;4831004;29;20109;-93
2021/10/01 11:36:44;;;;;;;2.95;2.25;;;15.90;55.00;;;;;;4801008;29;20116;-92
2021/10/01 11:39:35;;;;;;;;;;;;;;;;;;;;;
2021/10/01 11:42:49;;;;;;;2.50;2.30;;;16.00;54.90;;;;;;4849560;29;20109;-92
2021/10/01 11:46:01;;;;;;;2.63;1.73;;;16.00;54.90;;;;;;4842889;29;20042;-93
2021/10/01 11:49:02;;;;;;;4.20;3.03;;;16.00;54.70;;;;;;4851657;29;20110;-91
2021/10/01 11:51:33;;;;;;;2.60;2.40;;;16.00;54.80;;;;;;4869075;29;20128;-93
2021/10/01 11:58:10;;;;;;;2.33;2.13;;;16.10;54.90;;;;;;4844815;29;20485;-90
2021/10/01 12:00:42;;;;;;;2.67;2.40;;;16.20;55.40;;;;;;4818147;29;20562;-90
2021/10/01 12:21:13;;;;;;;3.03;2.60;;;16.30;54.50;;;;;;5085594;23;20044;-89
2021/10/01 12:24:26;;;;;;;4.55;2.95;;;16.30;53.60;;;;;;4919584;29;20040;-94
2021/10/01 12:31:17;;;;;;;2.90;2.60;;;16.30;53.90;;;;;;4803968;29;20415;-95
2021/10/01 12:33:56;;;;;;;2.42;1.98;;;16.30;54.50;;;;;;4816089;29;20170;-94
2021/10/01 12:37:23;;;;;;;2.53;2.00;;;16.40;54.50;;;;;;4889893;29;20091;-94
2021/10/01 12:46:17;;;;;;;;;;;;;;;;;;;;;
2021/10/01 13:02:55;;;;;;;3.22;2.90;;;17.70;53.30;;;;;;4968538;29;20083;-93
2021/10/01 13:06:14;;;;;;;;;;;;;;;;;;;;;
2021/10/01 13:09:32;;;;;;;4.13;2.65;;;18.20;52.30;;;;;;4966431;29;20055;-95
2021/10/01 13:15:56;;;;;;;3.70;3.13;;;19.00;51.50;;;;;;4890314;29;20039;-93
2021/10/01 13:21:59;;;;;;;6.63;3.08;;;20.20;51.50;;;;;;4886157;29;21256;-92
2021/10/01 13:25:04;;;;;;;;;;;;;;;;;;;;;
2021/10/01 13:27:36;;;;;;;3.90;2.72;;;21.50;50.40;;;;;;4974336;29;20051;-92
2021/10/01 13:30:11;;;;;;;2.63;2.40;;;22.00;49.40;;;;;;4955076;29;20038;-93
2021/10/01 13:32:40;;;;;;;4.53;3.20;;;22.30;49.40;;;;;;4954016;29;20042;-93
2021/10/01 13:35:12;;;;;;;4.25;2.70;;;22.70;48.50;;;;;;4953665;29;20042;-94
2021/10/01 13:38:04;;;;;;;5.78;2.78;;;23.00;48.00;;;;;;4954016;29;20028;-94
2021/10/01 13:40:31;;;;;;;4.57;2.70;;;23.40;46.20;;;;;;4941912;29;20047;-94
2021/10/01 13:42:57;;;;;;;3.70;2.45;;;23.80;47.70;;;;;;4950056;29;20376;-94
2021/10/01 13:45:35;;;;;;;2.40;2.20;;;24.20;47.10;;;;;;4949453;29;20035;-93
2021/10/01 13:48:07;;;;;;;5.45;2.72;;;24.60;46.10;;;;;;4952261;29;20054;-94
2021/10/01 13:50:36;;;;;;;5.78;4.00;;;24.90;45.40;;;;;;4956653;29;20030;-93
2021/10/01 13:53:07;;;;;;;4.22;2.95;;;25.20;45.40;;;;;;4959567;29;20062;-93
2021/10/01 13:55:36;;;;;;;3.35;2.92;;;25.40;44.80;;;;;;4954507;29;20043;-94
2021/10/01 13:58:02;;;;;;;2.83;2.45;;;25.60;43.70;;;;;;4951892;29;20414;-94
2021/10/01 14:00:56;;;;;;;;;;;;;;;;;;;;;
2021/10/01 14:03:25;;;;;;;2.97;2.67;;;25.70;43.40;;;;;;4973047;29;20067;-94
2021/10/01 14:05:56;;;;;;;2.60;2.40;;;25.80;43.40;;;;;;4958088;29;20042;-94
2021/10/01 14:08:39;;;;;;;3.45;2.75;;;26.00;43.30;;;;;;4959142;29;20062;-95
2021/10/01 14:11:08;;;;;;;3.47;2.70;;;26.10;41.60;;;;;;4954201;29;20115;-95
2021/10/01 14:13:36;;;;;;;2.55;2.33;;;26.20;42.80;;;;;;4971280;29;20023;-94
2021/10/01 14:16:05;;;;;;;4.03;2.78;;;26.20;42.60;;;;;;4956456;29;20024;-95
2021/10/01 14:18:38;;;;;;;2.75;2.40;;;26.30;42.20;;;;;;4959024;29;20063;-95
2021/10/01 14:21:14;;;;;;;;;;;;;;;;;;;;;
2021/10/01 14:23:45;;;;;;;2.92;2.63;;;26.40;41.70;;;;;;4978783;29;20055;-94
2021/10/01 14:26:52;;;;;;;;;;;;;;;;;;;;;
2021/10/01 14:32:54;;;;;;;3.42;2.78;;;26.20;40.20;;;;;;5064469;23;20032;-94
2021/10/01 14:35:46;;;;;;;6.40;3.50;;;26.20;41.20;;;;;;4964260;28;20042;-92
2021/10/01 14:38:41;;;;;;;3.53;3.22;;;25.90;39.90;;;;;;4953365;28;20075;-92
2021/10/01 14:41:19;;;;;;;3.50;3.20;;;25.60;41.10;;;;;;4985210;23;20047;-93
2021/10/01 14:43:48;;;;;;;5.30;3.22;;;25.50;41.10;;;;;;4963743;29;20042;-95
2021/10/01 14:46:17;;;;;;;3.50;2.85;;;25.30;41.10;;;;;;4962304;29;20027;-93
2021/10/01 14:49:51;;;;;;;;;;;;;;;;;;;;;
2021/10/01 14:52:20;;;;;;;4.97;2.92;;;24.90;40.60;;;;;;4961633;29;20116;-93
2021/10/01 14:55:09;;;;;;;3.95;3.15;;;24.70;41.20;;;;;;4959200;29;20042;-93
2021/10/01 14:57:44;;;;;;;4.30;3.03;;;24.60;41.50;;;;;;4975345;29;20039;-92
2021/10/01 15:03:53;;;;;;;4.20;3.72;;;23.50;41.60;;;;;;4919190;29;20037;-92
2021/10/01 15:07:00;;;;;;;9.75;4.30;;;23.10;42.30;;;;;;4963416;29;20020;-93
2021/10/01 15:28:24;;;;;;;9.88;4.63;;;18.50;46.50;;;;;;4989305;23;20052;-93
2021/10/01 15:38:53;;;;;;;3.80;2.75;;;16.80;49.20;;;;;;4745131;30;20041;-96
